sensor_id;sensor_type;location;lat;lon;timestamp;temperature;humidity
33955;DHT22;20233;50.804;7.126;2023-02-28T00:00:21;1.20;99.90
33955;DHT22;20233;50.804;7.126;2023-02-28T00:02:47;1.20;99.90
33955;DHT22;20233;50.804;7.126;2023-02-28T00:05:16;1.20;99.90
33955;DHT22;20233;50.804;7.126;2023-02-28T00:07:41;1.20;99.90
33955;DHT22;20233;50.804;7.126;2023-02-28T00:10:13;1.20;99.90
33955;DHT22;20233;50.804;7.126;2023-02-28T00:12:38;1.20;99.90
33955;DHT22;20233;50.804;7.126;2023-02-28T00:15:09;1.20;99.90
33955;DHT22;20233;50.804;7.126;2023-02-28T00:17:36;1.20;99.90
33955;DHT22;20233;50.804;7.126;2023-02-28T00:20:03;1.10;99.90
33955;DHT22;20233;50.804;7.126;2023-02-28T00:22:30;1.20;99.90
33955;DHT22;20233;50.804;7.126;2023-02-28T00:24:56;1.10;99.90
33955;DHT22;20233;50.804;7.126;2023-02-28T00:27:22;1.00;99.90
33955;DHT22;20233;50.804;7.126;2023-02-28T00:29:47;1.10;99.90
33955;DHT22;20233;50.804;7.126;2023-02-28T00:32:13;1.00;99.90
33955;DHT22;20233;50.804;7.126;2023-02-28T00:34:39;1.10;99.90
33955;DHT22;20233;50.804;7.126;2023-02-28T00:37:05;1.10;99.90
33955;DHT22;20233;50.804;7.126;2023-02-28T00:39:33;1.10;99.90
33955;DHT22;20233;50.804;7.126;2023-02-28T00:41:59;1.10;99.90
33955;DHT22;20233;50.804;7.126;2023-02-28T00:44:25;1.00;99.90
33955;DHT22;20233;50.804;7.126;2023-02-28T00:46:50;1.10;99.90
33955;DHT22;20233;50.804;7.126;2023-02-28T00:49:17;1.10;99.90
33955;DHT22;20233;50.804;7.126;2023-02-28T00:51:42;1.10;99.90
33955;DHT22;20233;50.804;7.126;2023-02-28T00:54:08;1.10;99.90
33955;DHT22;20233;50.804;7.126;2023-02-28T00:56:33;1.00;99.90
33955;DHT22;20233;50.804;7.126;2023-02-28T00:58:59;1.00;99.90
33955;DHT22;20233;50.804;7.126;2023-02-28T01:01:24;0.90;99.90
33955;DHT22;20233;50.804;7.126;2023-02-28T01:03:50;0.90;99.90
33955;DHT22;20233;50.804;7.126;2023-02-28T01:06:15;0.90;99.90
33955;DHT22;20233;50.804;7.126;2023-02-28T01:08:41;0.90;99.90
33955;DHT22;20233;50.804;7.126;2023-02-28T01:11:11;0.90;99.90
33955;DHT22;20233;50.804;7.126;2023-02-28T01:13:37;0.90;99.90
33955;DHT22;20233;50.804;7.126;2023-02-28T01:16:03;0.90;99.90
33955;DHT22;20233;50.804;7.126;2023-02-28T01:18:29;0.80;99.90
33955;DHT22;20233;50.804;7.126;2023-02-28T01:20:54;0.70;99.90
33955;DHT22;20233;50.804;7.126;2023-02-28T01:23:22;0.70;99.90
33955;DHT22;20233;50.804;7.126;2023-02-28T01:25:49;0.80;99.90
33955;DHT22;20233;50.804;7.126;2023-02-28T01:28:15;0.70;99.90
33955;DHT22;20233;50.804;7.126;2023-02-28T01:30:41;0.70;99.90
33955;DHT22;20233;50.804;7.126;2023-02-28T01:33:07;0.60;99.90
33955;DHT22;20233;50.804;7.126;2023-02-28T01:35:33;0.60;99.90
33955;DHT22;20233;50.804;7.126;2023-02-28T01:37:59;0.60;99.90
33955;DHT22;20233;50.804;7.126;2023-02-28T01:40:25;0.70;99.90
33955;DHT22;20233;50.804;7.126;2023-02-28T01:42:50;0.70;99.90
33955;DHT22;20233;50.804;7.126;2023-02-28T01:45:33;0.70;99.90
33955;DHT22;20233;50.804;7.126;2023-02-28T01:48:02;0.70;99.90
33955;DHT22;20233;50.804;7.126;2023-02-28T01:50:35;0.70;99.90
33955;DHT22;20233;50.804;7.126;2023-02-28T01:53:05;0.60;99.90
33955;DHT22;20233;50.804;7.126;2023-02-28T01:55:32;0.70;99.90
33955;DHT22;20233;50.804;7.126;2023-02-28T01:58:01;0.70;99.90
33955;DHT22;20233;50.804;7.126;2023-02-28T02:00:29;0.70;99.90
33955;DHT22;20233;50.804;7.126;2023-02-28T02:03:01;0.70;99.90
33955;DHT22;20233;50.804;7.126;2023-02-28T02:05:30;0.60;99.90
33955;DHT22;20233;50.804;7.126;2023-02-28T02:08:01;0.60;99.90
33955;DHT22;20233;50.804;7.126;2023-02-28T02:10:33;0.50;99.90
33955;DHT22;20233;50.804;7.126;2023-02-28T02:23:51;0.40;99.90
33955;DHT22;20233;50.804;7.126;2023-02-28T02:32:28;0.40;99.90
33955;DHT22;20233;50.804;7.126;2023-02-28T02:35:19;0.40;99.90
33955;DHT22;20233;50.804;7.126;2023-02-28T02:37:52;0.20;99.90
33955;DHT22;20233;50.804;7.126;2023-02-28T02:40:27;0.30;99.90
33955;DHT22;20233;50.804;7.126;2023-02-28T02:43:00;0.30;99.90
33955;DHT22;20233;50.804;7.126;2023-02-28T02:47:56;0.30;99.90
33955;DHT22;20233;50.804;7.126;2023-02-28T02:50:41;0.30;99.90
33955;DHT22;20233;50.804;7.126;2023-02-28T02:53:08;0.30;99.90
33955;DHT22;20233;50.804;7.126;2023-02-28T02:55:38;0.30;99.90
33955;DHT22;20233;50.804;7.126;2023-02-28T02:58:10;0.20;99.90
33955;DHT22;20233;50.804;7.126;2023-02-28T03:00:45;0.10;99.90
33955;DHT22;20233;50.804;7.126;2023-02-28T03:03:13;0.20;99.90
33955;DHT22;20233;50.804;7.126;2023-02-28T03:05:49;0.20;99.90
33955;DHT22;20233;50.804;7.126;2023-02-28T03:08:15;0.20;99.90
33955;DHT22;20233;50.804;7.126;2023-02-28T03:10:47;0.20;99.90
33955;DHT22;20233;50.804;7.126;2023-02-28T03:13:34;0.20;99.90
33955;DHT22;20233;50.804;7.126;2023-02-28T03:16:23;0.10;99.90
33955;DHT22;20233;50.804;7.126;2023-02-28T03:22:09;0.00;99.90
33955;DHT22;20233;50.804;7.126;2023-02-28T03:24:52;0.00;99.90
33955;DHT22;20233;50.804;7.126;2023-02-28T03:27:29;-0.10;99.90
33955;DHT22;20233;50.804;7.126;2023-02-28T03:30:09;-0.10;99.90
33955;DHT22;20233;50.804;7.126;2023-02-28T03:33:21;-0.10;99.90
33955;DHT22;20233;50.804;7.126;2023-02-28T03:35:36;-0.20;99.90
33955;DHT22;20233;50.804;7.126;2023-02-28T03:38:28;-0.20;99.90
33955;DHT22;20233;50.804;7.126;2023-02-28T03:41:16;-0.20;99.90
33955;DHT22;20233;50.804;7.126;2023-02-28T03:43:48;-0.30;99.90
33955;DHT22;20233;50.804;7.126;2023-02-28T03:46:19;-0.30;99.90
33955;DHT22;20233;50.804;7.126;2023-02-28T03:49:11;-0.40;99.90
33955;DHT22;20233;50.804;7.126;2023-02-28T03:51:40;-0.40;99.90
33955;DHT22;20233;50.804;7.126;2023-02-28T03:54:11;-0.50;99.90
33955;DHT22;20233;50.804;7.126;2023-02-28T03:56:41;-0.50;99.90
33955;DHT22;20233;50.804;7.126;2023-02-28T03:59:42;-0.50;99.90
33955;DHT22;20233;50.804;7.126;2023-02-28T04:02:09;-0.60;99.90
33955;DHT22;20233;50.804;7.126;2023-02-28T04:04:35;-0.60;99.90
33955;DHT22;20233;50.804;7.126;2023-02-28T04:07:07;-0.60;99.90
33955;DHT22;20233;50.804;7.126;2023-02-28T04:09:34;-0.60;99.90
33955;DHT22;20233;50.804;7.126;2023-02-28T04:11:59;-0.50;99.90
33955;DHT22;20233;50.804;7.126;2023-02-28T04:14:25;-0.60;99.90
33955;DHT22;20233;50.804;7.126;2023-02-28T04:16:51;-0.50;99.90
33955;DHT22;20233;50.804;7.126;2023-02-28T04:19:18;-0.60;99.90
33955;DHT22;20233;50.804;7.126;2023-02-28T04:21:51;-0.60;99.90
33955;DHT22;20233;50.804;7.126;2023-02-28T04:24:26;-0.50;99.90
33955;DHT22;20233;50.804;7.126;2023-02-28T04:26:53;-0.50;99.90
33955;DHT22;20233;50.804;7.126;2023-02-28T04:29:30;-0.60;99.90
33955;DHT22;20233;50.804;7.126;2023-02-28T04:31:58;-0.50;99.90
33955;DHT22;20233;50.804;7.126;2023-02-28T04:34:25;-0.60;99.90
33955;DHT22;20233;50.804;7.126;2023-02-28T04:36:51;-0.60;99.90
33955;DHT22;20233;50.804;7.126;2023-02-28T04:39:20;-0.50;99.90
33955;DHT22;20233;50.804;7.126;2023-02-28T04:41:46;-0.50;99.90
33955;DHT22;20233;50.804;7.126;2023-02-28T04:44:13;-0.60;99.90
33955;DHT22;20233;50.804;7.126;2023-02-28T04:46:38;-0.60;99.90
33955;DHT22;20233;50.804;7.126;2023-02-28T04:49:04;-0.50;99.90
33955;DHT22;20233;50.804;7.126;2023-02-28T04:51:30;-0.50;99.90
33955;DHT22;20233;50.804;7.126;2023-02-28T04:53:55;-0.50;99.90
33955;DHT22;20233;50.804;7.126;2023-02-28T04:56:21;-0.50;99.90
33955;DHT22;20233;50.804;7.126;2023-02-28T04:58:47;-0.60;99.90
33955;DHT22;20233;50.804;7.126;2023-02-28T05:01:20;-0.60;99.90
33955;DHT22;20233;50.804;7.126;2023-02-28T05:03:46;-0.60;99.90
33955;DHT22;20233;50.804;7.126;2023-02-28T05:06:13;-0.70;99.90
33955;DHT22;20233;50.804;7.126;2023-02-28T05:08:39;-0.70;99.90
33955;DHT22;20233;50.804;7.126;2023-02-28T05:11:15;-0.60;99.90
33955;DHT22;20233;50.804;7.126;2023-02-28T05:13:41;-0.60;99.90
33955;DHT22;20233;50.804;7.126;2023-02-28T05:16:07;-0.60;99.90
33955;DHT22;20233;50.804;7.126;2023-02-28T05:18:32;-0.60;99.90
33955;DHT22;20233;50.804;7.126;2023-02-28T05:20:59;-0.60;99.90
33955;DHT22;20233;50.804;7.126;2023-02-28T05:23:27;-0.50;99.90
33955;DHT22;20233;50.804;7.126;2023-02-28T05:25:53;-0.50;99.90
33955;DHT22;20233;50.804;7.126;2023-02-28T05:28:19;-0.50;99.90
33955;DHT22;20233;50.804;7.126;2023-02-28T05:30:45;-0.50;99.90
33955;DHT22;20233;50.804;7.126;2023-02-28T05:33:11;-0.40;99.90
33955;DHT22;20233;50.804;7.126;2023-02-28T05:35:40;-0.40;99.90
33955;DHT22;20233;50.804;7.126;2023-02-28T05:38:06;-0.40;99.90
33955;DHT22;20233;50.804;7.126;2023-02-28T05:40:32;-0.40;99.90
33955;DHT22;20233;50.804;7.126;2023-02-28T05:42:57;-0.40;99.90
33955;DHT22;20233;50.804;7.126;2023-02-28T05:45:23;-0.50;99.90
33955;DHT22;20233;50.804;7.126;2023-02-28T05:47:48;-0.40;99.90
33955;DHT22;20233;50.804;7.126;2023-02-28T05:50:14;-0.50;99.90
33955;DHT22;20233;50.804;7.126;2023-02-28T05:52:41;-0.40;99.90
33955;DHT22;20233;50.804;7.126;2023-02-28T05:55:06;-0.40;99.90
33955;DHT22;20233;50.804;7.126;2023-02-28T05:57:32;-0.30;99.90
33955;DHT22;20233;50.804;7.126;2023-02-28T05:59:57;-0.30;99.90
33955;DHT22;20233;50.804;7.126;2023-02-28T06:02:23;-0.30;99.90
33955;DHT22;20233;50.804;7.126;2023-02-28T06:04:48;-0.30;99.90
33955;DHT22;20233;50.804;7.126;2023-02-28T06:07:14;-0.30;99.90
33955;DHT22;20233;50.804;7.126;2023-02-28T06:09:41;-0.40;99.90
33955;DHT22;20233;50.804;7.126;2023-02-28T06:12:07;-0.40;99.90
33955;DHT22;20233;50.804;7.126;2023-02-28T06:14:35;-0.50;99.90
33955;DHT22;20233;50.804;7.126;2023-02-28T06:17:01;-0.50;99.90
33955;DHT22;20233;50.804;7.126;2023-02-28T06:19:27;-0.50;99.90
33955;DHT22;20233;50.804;7.126;2023-02-28T06:21:55;-0.50;99.90
33955;DHT22;20233;50.804;7.126;2023-02-28T06:24:23;-0.60;99.90
33955;DHT22;20233;50.804;7.126;2023-02-28T06:26:49;-0.60;99.90
33955;DHT22;20233;50.804;7.126;2023-02-28T06:29:16;-0.60;99.90
33955;DHT22;20233;50.804;7.126;2023-02-28T06:31:45;-0.60;99.90
33955;DHT22;20233;50.804;7.126;2023-02-28T06:34:12;-0.70;99.90
33955;DHT22;20233;50.804;7.126;2023-02-28T06:36:39;-0.70;99.90
33955;DHT22;20233;50.804;7.126;2023-02-28T06:39:05;-0.70;99.90
33955;DHT22;20233;50.804;7.126;2023-02-28T06:41:31;-0.70;99.90
33955;DHT22;20233;50.804;7.126;2023-02-28T06:43:56;-0.60;99.90
33955;DHT22;20233;50.804;7.126;2023-02-28T06:46:23;-0.60;99.90
33955;DHT22;20233;50.804;7.126;2023-02-28T06:48:49;-0.60;99.90
33955;DHT22;20233;50.804;7.126;2023-02-28T06:51:17;-0.70;99.90
33955;DHT22;20233;50.804;7.126;2023-02-28T06:53:42;-0.70;99.90
33955;DHT22;20233;50.804;7.126;2023-02-28T06:56:11;-0.80;99.90
33955;DHT22;20233;50.804;7.126;2023-02-28T06:58:37;-0.70;99.90
33955;DHT22;20233;50.804;7.126;2023-02-28T07:01:04;-0.70;99.90
33955;DHT22;20233;50.804;7.126;2023-02-28T07:03:30;-0.70;99.90
33955;DHT22;20233;50.804;7.126;2023-02-28T07:05:55;-0.60;99.90
33955;DHT22;20233;50.804;7.126;2023-02-28T07:08:25;-0.60;99.90
33955;DHT22;20233;50.804;7.126;2023-02-28T07:10:54;-0.70;99.90
33955;DHT22;20233;50.804;7.126;2023-02-28T07:13:20;-0.70;99.90
33955;DHT22;20233;50.804;7.126;2023-02-28T07:16:09;-0.70;99.90
33955;DHT22;20233;50.804;7.126;2023-02-28T07:18:37;-0.70;99.90
33955;DHT22;20233;50.804;7.126;2023-02-28T07:21:08;-0.70;99.90
33955;DHT22;20233;50.804;7.126;2023-02-28T07:23:36;-0.60;99.90
33955;DHT22;20233;50.804;7.126;2023-02-28T07:26:10;-0.70;99.90
33955;DHT22;20233;50.804;7.126;2023-02-28T07:28:38;-0.60;99.90
33955;DHT22;20233;50.804;7.126;2023-02-28T07:31:06;-0.60;99.90
33955;DHT22;20233;50.804;7.126;2023-02-28T07:33:34;-0.50;99.90
33955;DHT22;20233;50.804;7.126;2023-02-28T07:36:03;-0.50;99.90
33955;DHT22;20233;50.804;7.126;2023-02-28T07:38:30;-0.40;99.90
33955;DHT22;20233;50.804;7.126;2023-02-28T07:40:58;-0.40;99.90
33955;DHT22;20233;50.804;7.126;2023-02-28T07:43:25;-0.40;99.90
33955;DHT22;20233;50.804;7.126;2023-02-28T07:45:51;-0.30;99.90
33955;DHT22;20233;50.804;7.126;2023-02-28T07:48:18;-0.30;99.90
33955;DHT22;20233;50.804;7.126;2023-02-28T07:50:45;-0.20;99.90
33955;DHT22;20233;50.804;7.126;2023-02-28T07:53:21;-0.20;99.90
33955;DHT22;20233;50.804;7.126;2023-02-28T07:55:49;-0.10;99.90
33955;DHT22;20233;50.804;7.126;2023-02-28T07:58:15;-0.10;99.90
33955;DHT22;20233;50.804;7.126;2023-02-28T08:00:42;0.00;99.90
33955;DHT22;20233;50.804;7.126;2023-02-28T08:03:11;0.10;99.90
33955;DHT22;20233;50.804;7.126;2023-02-28T08:05:40;0.20;99.90
33955;DHT22;20233;50.804;7.126;2023-02-28T08:08:07;0.30;99.90
33955;DHT22;20233;50.804;7.126;2023-02-28T08:10:34;0.40;99.90
33955;DHT22;20233;50.804;7.126;2023-02-28T08:13:02;0.50;99.90
33955;DHT22;20233;50.804;7.126;2023-02-28T08:15:28;0.50;99.90
33955;DHT22;20233;50.804;7.126;2023-02-28T08:17:55;0.70;99.90
33955;DHT22;20233;50.804;7.126;2023-02-28T08:20:26;0.70;99.90
33955;DHT22;20233;50.804;7.126;2023-02-28T08:22:52;0.80;99.90
33955;DHT22;20233;50.804;7.126;2023-02-28T08:25:19;0.80;99.90
33955;DHT22;20233;50.804;7.126;2023-02-28T08:27:46;0.90;99.90
33955;DHT22;20233;50.804;7.126;2023-02-28T08:30:14;1.00;99.90
33955;DHT22;20233;50.804;7.126;2023-02-28T08:32:41;1.10;99.90
33955;DHT22;20233;50.804;7.126;2023-02-28T08:35:08;1.20;99.90
33955;DHT22;20233;50.804;7.126;2023-02-28T08:37:35;1.20;99.90
33955;DHT22;20233;50.804;7.126;2023-02-28T08:40:01;1.40;99.90
33955;DHT22;20233;50.804;7.126;2023-02-28T08:42:31;1.40;99.90
33955;DHT22;20233;50.804;7.126;2023-02-28T08:44:58;1.50;99.90
33955;DHT22;20233;50.804;7.126;2023-02-28T08:47:25;1.60;99.90
33955;DHT22;20233;50.804;7.126;2023-02-28T08:49:53;1.70;99.90
33955;DHT22;20233;50.804;7.126;2023-02-28T08:52:20;1.80;99.90
33955;DHT22;20233;50.804;7.126;2023-02-28T08:54:47;1.90;99.90
33955;DHT22;20233;50.804;7.126;2023-02-28T08:57:13;1.90;99.90
33955;DHT22;20233;50.804;7.126;2023-02-28T08:59:40;2.00;99.90
33955;DHT22;20233;50.804;7.126;2023-02-28T09:02:09;2.00;99.90
33955;DHT22;20233;50.804;7.126;2023-02-28T09:04:36;2.10;99.90
33955;DHT22;20233;50.804;7.126;2023-02-28T09:07:03;2.20;99.90
33955;DHT22;20233;50.804;7.126;2023-02-28T09:09:30;2.30;99.90
33955;DHT22;20233;50.804;7.126;2023-02-28T09:11:57;2.40;99.90
33955;DHT22;20233;50.804;7.126;2023-02-28T09:14:24;2.40;99.90
33955;DHT22;20233;50.804;7.126;2023-02-28T09:16:50;2.40;99.90
33955;DHT22;20233;50.804;7.126;2023-02-28T09:19:16;2.50;99.90
33955;DHT22;20233;50.804;7.126;2023-02-28T09:21:43;2.50;99.90
33955;DHT22;20233;50.804;7.126;2023-02-28T09:24:16;2.60;99.90
33955;DHT22;20233;50.804;7.126;2023-02-28T09:26:42;2.60;99.90
33955;DHT22;20233;50.804;7.126;2023-02-28T09:29:09;2.60;99.90
33955;DHT22;20233;50.804;7.126;2023-02-28T09:31:37;2.60;99.90
33955;DHT22;20233;50.804;7.126;2023-02-28T09:34:04;2.80;99.90
33955;DHT22;20233;50.804;7.126;2023-02-28T09:36:31;2.80;99.90
33955;DHT22;20233;50.804;7.126;2023-02-28T09:38:59;2.90;99.90
33955;DHT22;20233;50.804;7.126;2023-02-28T09:41:27;2.90;99.90
33955;DHT22;20233;50.804;7.126;2023-02-28T09:44:00;2.90;99.90
33955;DHT22;20233;50.804;7.126;2023-02-28T09:49:00;3.00;99.90
33955;DHT22;20233;50.804;7.126;2023-02-28T09:51:37;3.10;99.90
33955;DHT22;20233;50.804;7.126;2023-02-28T09:54:14;3.10;99.90
33955;DHT22;20233;50.804;7.126;2023-02-28T09:59:51;3.30;99.90
33955;DHT22;20233;50.804;7.126;2023-02-28T10:02:49;3.40;99.90
33955;DHT22;20233;50.804;7.126;2023-02-28T10:05:40;3.60;99.90
33955;DHT22;20233;50.804;7.126;2023-02-28T10:10:47;3.60;99.90
33955;DHT22;20233;50.804;7.126;2023-02-28T10:16:03;3.60;99.90
33955;DHT22;20233;50.804;7.126;2023-02-28T10:18:40;3.80;99.90
33955;DHT22;20233;50.804;7.126;2023-02-28T10:21:21;3.90;99.90
33955;DHT22;20233;50.804;7.126;2023-02-28T10:23:48;3.90;99.90
33955;DHT22;20233;50.804;7.126;2023-02-28T10:26:17;4.00;99.90
33955;DHT22;20233;50.804;7.126;2023-02-28T10:28:44;4.10;99.90
33955;DHT22;20233;50.804;7.126;2023-02-28T10:31:20;4.20;99.90
33955;DHT22;20233;50.804;7.126;2023-02-28T10:33:48;4.30;99.90
33955;DHT22;20233;50.804;7.126;2023-02-28T10:36:17;4.20;99.90
33955;DHT22;20233;50.804;7.126;2023-02-28T10:38:45;4.30;99.90
33955;DHT22;20233;50.804;7.126;2023-02-28T10:41:14;4.30;99.90
33955;DHT22;20233;50.804;7.126;2023-02-28T10:43:43;4.10;99.90
33955;DHT22;20233;50.804;7.126;2023-02-28T10:46:19;4.20;99.90
33955;DHT22;20233;50.804;7.126;2023-02-28T10:49:03;4.30;99.90
33955;DHT22;20233;50.804;7.126;2023-02-28T10:51:41;4.40;99.90
33955;DHT22;20233;50.804;7.126;2023-02-28T10:54:19;4.30;99.90
33955;DHT22;20233;50.804;7.126;2023-02-28T10:59:33;4.40;99.90
33955;DHT22;20233;50.804;7.126;2023-02-28T11:01:59;4.50;99.90
33955;DHT22;20233;50.804;7.126;2023-02-28T11:07:01;4.70;99.90
33955;DHT22;20233;50.804;7.126;2023-02-28T11:09:34;4.70;99.90
33955;DHT22;20233;50.804;7.126;2023-02-28T11:12:08;4.70;99.90
33955;DHT22;20233;50.804;7.126;2023-02-28T11:14:49;4.60;99.90
33955;DHT22;20233;50.804;7.126;2023-02-28T11:17:25;4.80;99.90
33955;DHT22;20233;50.804;7.126;2023-02-28T11:20:07;4.90;99.90
33955;DHT22;20233;50.804;7.126;2023-02-28T11:22:46;4.90;99.90
33955;DHT22;20233;50.804;7.126;2023-02-28T11:25:47;4.90;99.90
33955;DHT22;20233;50.804;7.126;2023-02-28T11:28:35;4.90;99.90
33955;DHT22;20233;50.804;7.126;2023-02-28T11:31:08;5.10;99.90
33955;DHT22;20233;50.804;7.126;2023-02-28T11:33:44;5.20;99.90
33955;DHT22;20233;50.804;7.126;2023-02-28T11:36:23;5.30;99.90
33955;DHT22;20233;50.804;7.126;2023-02-28T11:39:12;5.40;99.90
33955;DHT22;20233;50.804;7.126;2023-02-28T11:42:11;5.20;99.90
33955;DHT22;20233;50.804;7.126;2023-02-28T11:56:14;5.50;99.90
33955;DHT22;20233;50.804;7.126;2023-02-28T12:02:16;5.50;99.90
33955;DHT22;20233;50.804;7.126;2023-02-28T12:04:58;5.30;99.90
33955;DHT22;20233;50.804;7.126;2023-02-28T12:07:49;5.40;99.90
33955;DHT22;20233;50.804;7.126;2023-02-28T12:10:26;5.40;99.90
33955;DHT22;20233;50.804;7.126;2023-02-28T12:13:26;5.30;99.90
33955;DHT22;20233;50.804;7.126;2023-02-28T12:16:18;5.50;99.90
33955;DHT22;20233;50.804;7.126;2023-02-28T12:26:51;6.00;99.90
33955;DHT22;20233;50.804;7.126;2023-02-28T12:29:29;6.20;99.90
33955;DHT22;20233;50.804;7.126;2023-02-28T12:32:54;6.40;99.90
33955;DHT22;20233;50.804;7.126;2023-02-28T12:35:22;6.30;99.90
33955;DHT22;20233;50.804;7.126;2023-02-28T12:40:47;6.50;99.90
33955;DHT22;20233;50.804;7.126;2023-02-28T12:43:17;6.50;99.90
33955;DHT22;20233;50.804;7.126;2023-02-28T12:45:57;6.00;99.90
33955;DHT22;20233;50.804;7.126;2023-02-28T12:48:52;6.20;99.90
33955;DHT22;20233;50.804;7.126;2023-02-28T12:51:24;6.10;99.90
33955;DHT22;20233;50.804;7.126;2023-02-28T12:54:21;6.30;99.90
33955;DHT22;20233;50.804;7.126;2023-02-28T12:59:43;6.40;99.90
33955;DHT22;20233;50.804;7.126;2023-02-28T13:05:07;6.80;99.90
33955;DHT22;20233;50.804;7.126;2023-02-28T13:10:18;5.90;99.90
33955;DHT22;20233;50.804;7.126;2023-02-28T13:12:49;6.00;99.90
33955;DHT22;20233;50.804;7.126;2023-02-28T13:15:26;6.30;99.90
33955;DHT22;20233;50.804;7.126;2023-02-28T13:18:01;6.60;99.90
33955;DHT22;20233;50.804;7.126;2023-02-28T13:20:36;6.80;99.90
33955;DHT22;20233;50.804;7.126;2023-02-28T13:23:03;6.20;99.90
33955;DHT22;20233;50.804;7.126;2023-02-28T13:28:12;6.20;99.90
33955;DHT22;20233;50.804;7.126;2023-02-28T13:38:58;6.50;99.90
33955;DHT22;20233;50.804;7.126;2023-02-28T13:46:32;6.60;99.90
33955;DHT22;20233;50.804;7.126;2023-02-28T13:49:19;6.90;99.90
33955;DHT22;20233;50.804;7.126;2023-02-28T13:51:47;7.10;99.90
33955;DHT22;20233;50.804;7.126;2023-02-28T14:03:15;6.80;99.90
33955;DHT22;20233;50.804;7.126;2023-02-28T14:05:45;6.90;99.90
33955;DHT22;20233;50.804;7.126;2023-02-28T14:08:18;7.00;99.90
33955;DHT22;20233;50.804;7.126;2023-02-28T14:10:51;7.10;99.90
33955;DHT22;20233;50.804;7.126;2023-02-28T14:13:45;6.60;99.90
33955;DHT22;20233;50.804;7.126;2023-02-28T14:16:20;6.60;99.90
33955;DHT22;20233;50.804;7.126;2023-02-28T14:18:51;6.60;99.90
33955;DHT22;20233;50.804;7.126;2023-02-28T14:21:30;6.30;99.90
33955;DHT22;20233;50.804;7.126;2023-02-28T14:32:10;6.80;99.90
33955;DHT22;20233;50.804;7.126;2023-02-28T14:37:29;7.00;99.90
33955;DHT22;20233;50.804;7.126;2023-02-28T14:39:57;7.10;99.90
33955;DHT22;20233;50.804;7.126;2023-02-28T14:42:49;7.10;99.90
33955;DHT22;20233;50.804;7.126;2023-02-28T14:45:21;7.20;99.90
33955;DHT22;20233;50.804;7.126;2023-02-28T14:47:49;7.10;99.90
33955;DHT22;20233;50.804;7.126;2023-02-28T14:50:29;7.00;99.90
33955;DHT22;20233;50.804;7.126;2023-02-28T14:52:57;7.10;99.90
33955;DHT22;20233;50.804;7.126;2023-02-28T14:55:31;7.20;99.90
33955;DHT22;20233;50.804;7.126;2023-02-28T14:58:00;7.20;99.90
33955;DHT22;20233;50.804;7.126;2023-02-28T15:00:32;7.20;99.90
33955;DHT22;20233;50.804;7.126;2023-02-28T15:02:59;7.00;99.90
33955;DHT22;20233;50.804;7.126;2023-02-28T15:05:33;6.80;99.90
33955;DHT22;20233;50.804;7.126;2023-02-28T15:08:12;6.80;99.90
33955;DHT22;20233;50.804;7.126;2023-02-28T15:10:57;7.00;99.90
33955;DHT22;20233;50.804;7.126;2023-02-28T15:13:34;7.00;99.90
33955;DHT22;20233;50.804;7.126;2023-02-28T15:16:04;7.10;99.90
33955;DHT22;20233;50.804;7.126;2023-02-28T15:18:53;7.10;99.90
33955;DHT22;20233;50.804;7.126;2023-02-28T15:23:58;6.70;99.90
33955;DHT22;20233;50.804;7.126;2023-02-28T15:26:38;6.80;99.90
33955;DHT22;20233;50.804;7.126;2023-02-28T15:29:21;6.90;99.90
33955;DHT22;20233;50.804;7.126;2023-02-28T15:31:50;6.80;99.90
33955;DHT22;20233;50.804;7.126;2023-02-28T15:34:42;6.90;99.90
33955;DHT22;20233;50.804;7.126;2023-02-28T15:39:58;6.60;99.90
33955;DHT22;20233;50.804;7.126;2023-02-28T15:42:31;6.70;99.90
33955;DHT22;20233;50.804;7.126;2023-02-28T15:44:58;6.70;99.90
33955;DHT22;20233;50.804;7.126;2023-02-28T15:47:27;6.70;99.90
33955;DHT22;20233;50.804;7.126;2023-02-28T15:50:03;6.80;99.90
33955;DHT22;20233;50.804;7.126;2023-02-28T15:52:42;6.90;99.90
33955;DHT22;20233;50.804;7.126;2023-02-28T15:55:20;6.90;99.90
33955;DHT22;20233;50.804;7.126;2023-02-28T15:57:50;6.90;99.90
33955;DHT22;20233;50.804;7.126;2023-02-28T16:00:21;6.80;99.90
33955;DHT22;20233;50.804;7.126;2023-02-28T16:02:48;6.80;99.90
33955;DHT22;20233;50.804;7.126;2023-02-28T16:05:21;6.80;99.90
33955;DHT22;20233;50.804;7.126;2023-02-28T16:08:15;6.80;99.90
33955;DHT22;20233;50.804;7.126;2023-02-28T16:10:42;6.90;99.90
33955;DHT22;20233;50.804;7.126;2023-02-28T16:13:11;7.00;99.90
33955;DHT22;20233;50.804;7.126;2023-02-28T16:15:42;6.90;99.90
33955;DHT22;20233;50.804;7.126;2023-02-28T16:18:13;6.80;99.90
33955;DHT22;20233;50.804;7.126;2023-02-28T16:20:40;6.80;99.90
33955;DHT22;20233;50.804;7.126;2023-02-28T16:23:07;6.80;99.90
33955;DHT22;20233;50.804;7.126;2023-02-28T16:25:42;6.80;99.90
33955;DHT22;20233;50.804;7.126;2023-02-28T16:28:26;6.80;99.90
33955;DHT22;20233;50.804;7.126;2023-02-28T16:30:57;6.70;99.90
33955;DHT22;20233;50.804;7.126;2023-02-28T16:33:24;6.60;99.90
33955;DHT22;20233;50.804;7.126;2023-02-28T16:35:50;6.70;99.90
33955;DHT22;20233;50.804;7.126;2023-02-28T16:38:17;6.70;99.90
33955;DHT22;20233;50.804;7.126;2023-02-28T16:40:45;6.70;99.90
33955;DHT22;20233;50.804;7.126;2023-02-28T16:43:25;6.70;99.90
33955;DHT22;20233;50.804;7.126;2023-02-28T16:45:56;6.60;99.90
33955;DHT22;20233;50.804;7.126;2023-02-28T16:48:25;6.70;99.90
33955;DHT22;20233;50.804;7.126;2023-02-28T16:50:52;6.70;99.90
33955;DHT22;20233;50.804;7.126;2023-02-28T16:53:20;6.70;99.90
33955;DHT22;20233;50.804;7.126;2023-02-28T16:55:46;6.70;99.90
33955;DHT22;20233;50.804;7.126;2023-02-28T16:58:17;6.60;99.90
33955;DHT22;20233;50.804;7.126;2023-02-28T17:00:45;6.50;99.90
33955;DHT22;20233;50.804;7.126;2023-02-28T17:03:23;6.50;99.90
33955;DHT22;20233;50.804;7.126;2023-02-28T17:05:50;6.50;99.90
33955;DHT22;20233;50.804;7.126;2023-02-28T17:08:17;6.60;99.90
33955;DHT22;20233;50.804;7.126;2023-02-28T17:10:43;6.50;99.90
33955;DHT22;20233;50.804;7.126;2023-02-28T17:13:09;6.50;99.90
33955;DHT22;20233;50.804;7.126;2023-02-28T17:15:37;6.40;99.90
33955;DHT22;20233;50.804;7.126;2023-02-28T17:18:05;6.30;99.90
33955;DHT22;20233;50.804;7.126;2023-02-28T17:20:32;6.20;99.90
33955;DHT22;20233;50.804;7.126;2023-02-28T17:22:58;6.20;99.90
33955;DHT22;20233;50.804;7.126;2023-02-28T17:25:29;6.10;99.90
33955;DHT22;20233;50.804;7.126;2023-02-28T17:27:56;6.10;99.90
33955;DHT22;20233;50.804;7.126;2023-02-28T17:30:25;6.10;99.90
33955;DHT22;20233;50.804;7.126;2023-02-28T17:32:54;6.10;99.90
33955;DHT22;20233;50.804;7.126;2023-02-28T17:35:21;6.00;99.90
33955;DHT22;20233;50.804;7.126;2023-02-28T17:37:47;5.90;99.90
33955;DHT22;20233;50.804;7.126;2023-02-28T17:40:20;5.90;99.90
33955;DHT22;20233;50.804;7.126;2023-02-28T17:42:46;5.80;99.90
33955;DHT22;20233;50.804;7.126;2023-02-28T17:45:14;5.80;99.90
33955;DHT22;20233;50.804;7.126;2023-02-28T17:47:43;5.90;99.90
33955;DHT22;20233;50.804;7.126;2023-02-28T17:50:15;5.80;99.90
33955;DHT22;20233;50.804;7.126;2023-02-28T17:52:42;5.80;99.90
33955;DHT22;20233;50.804;7.126;2023-02-28T17:55:10;5.60;99.90
33955;DHT22;20233;50.804;7.126;2023-02-28T17:57:38;5.50;99.90
33955;DHT22;20233;50.804;7.126;2023-02-28T18:00:11;5.50;99.90